Time;durP1;ratioP1;P1;durP2;ratioP2;P2;SDS_P1;SDS_P2;PMS_P1;PMS_P2;Temp;Humidity;BMP_temperature;BMP_pressure;BME280_temperature;BME280_humidity;BME280_pressure;Samples;Min_cycle;Max_cycle;Signal;HPM_P1;HPM_P2
2022/06/03 00:02:29;;;;;;;3.28;3.08;;;;;;;;;;5063696;28;20201;-70
2022/06/03 00:05:22;;;;;;;3.03;2.70;;;;;;;;;;5063506;28;20231;-70
2022/06/03 00:07:55;;;;;;;2.85;2.50;;;;;;;;;;5063401;28;20205;-70
2022/06/03 00:10:25;;;;;;;2.97;2.72;;;;;;;;;;5063481;28;20197;-70
2022/06/03 00:12:54;;;;;;;2.47;2.25;;;;;;;;;;5063831;28;20512;-70
2022/06/03 00:15:35;;;;;;;3.15;2.60;;;;;;;;;;5063430;28;20201;-70
2022/06/03 00:18:15;;;;;;;2.90;2.70;;;;;;;;;;5054411;28;20224;-70
2022/06/03 00:20:53;;;;;;;2.75;2.65;;;;;;;;;;5063402;28;20204;-70
2022/06/03 00:23:38;;;;;;;3.08;2.70;;;;;;;;;;5063558;28;20201;-70
2022/06/03 00:26:23;;;;;;;3.50;3.20;;;;;;;;;;5063083;28;20197;-70
2022/06/03 00:29:00;;;;;;;4.63;2.40;;;;;;;;;;5056149;28;20231;-70
2022/06/03 00:31:36;;;;;;;2.63;2.47;;;;;;;;;;5063018;28;20193;-70
2022/06/03 00:34:14;;;;;;;3.55;2.33;;;;;;;;;;5063230;28;20519;-70
2022/06/03 00:36:48;;;;;;;2.45;2.45;;;;;;;;;;5063010;28;20219;-70
2022/06/03 00:39:27;;;;;;;2.63;2.53;;;;;;;;;;5062993;28;20223;-70
2022/06/03 00:42:03;;;;;;;3.33;2.90;;;;;;;;;;5062901;28;20436;-70
2022/06/03 00:44:43;;;;;;;3.03;2.53;;;;;;;;;;5063109;28;20505;-70
2022/06/03 00:47:16;;;;;;;2.88;2.72;;;;;;;;;;5062753;28;20422;-70
2022/06/03 00:49:50;;;;;;;2.90;2.42;;;;;;;;;;5062947;28;20388;-69
2022/06/03 00:52:29;;;;;;;3.15;2.58;;;;;;;;;;5062732;28;20201;-70
2022/06/03 00:55:04;;;;;;;3.05;2.58;;;;;;;;;;5062907;28;20197;-70
2022/06/03 00:57:49;;;;;;;4.75;3.08;;;;;;;;;;5062594;28;20196;-70
2022/06/03 01:00:20;;;;;;;2.40;2.40;;;;;;;;;;5062614;28;20221;-70
2022/06/03 01:02:52;;;;;;;4.32;2.80;;;;;;;;;;5062855;28;20204;-70
2022/06/03 01:05:25;;;;;;;2.70;2.47;;;;;;;;;;5062486;28;20232;-70
2022/06/03 01:07:57;;;;;;;5.28;3.38;;;;;;;;;;5062318;28;20505;-70
2022/06/03 01:10:34;;;;;;;2.97;2.78;;;;;;;;;;5062559;28;20197;-70
2022/06/03 01:13:06;;;;;;;2.55;2.45;;;;;;;;;;5062177;28;20236;-70
2022/06/03 01:15:38;;;;;;;3.05;2.85;;;;;;;;;;5062673;28;20224;-70
2022/06/03 01:18:10;;;;;;;3.00;2.90;;;;;;;;;;5062425;28;20235;-70
2022/06/03 01:20:39;;;;;;;2.92;2.80;;;;;;;;;;5062414;28;20485;-70
2022/06/03 01:23:21;;;;;;;2.60;2.50;;;;;;;;;;5062268;28;20427;-70
2022/06/03 01:26:02;;;;;;;3.03;2.92;;;;;;;;;;5062199;28;20201;-70
2022/06/03 01:28:43;;;;;;;3.22;3.03;;;;;;;;;;5053475;28;20197;-70
2022/06/03 01:31:14;;;;;;;3.08;2.90;;;;;;;;;;5062776;28;20411;-70
2022/06/03 01:33:58;;;;;;;3.00;2.90;;;;;;;;;;5062529;28;20193;-70
2022/06/03 01:36:33;;;;;;;3.40;3.05;;;;;;;;;;5062151;28;20208;-70
2022/06/03 01:39:06;;;;;;;4.55;3.15;;;;;;;;;;5062228;28;20224;-70
2022/06/03 01:41:39;;;;;;;2.80;2.70;;;;;;;;;;5062188;28;20404;-70
2022/06/03 01:44:14;;;;;;;3.28;3.00;;;;;;;;;;5061694;28;20197;-70
2022/06/03 01:46:43;;;;;;;2.75;2.65;;;;;;;;;;5062824;28;20196;-70
2022/06/03 01:49:27;;;;;;;2.92;2.83;;;;;;;;;;5066294;28;20508;-70
2022/06/03 01:52:09;;;;;;;2.90;2.75;;;;;;;;;;5066161;28;20197;-70
2022/06/03 01:54:54;;;;;;;3.53;3.33;;;;;;;;;;5066381;28;20411;-70
2022/06/03 01:57:44;;;;;;;3.58;3.38;;;;;;;;;;5065892;28;20238;-70
2022/06/03 02:00:26;;;;;;;3.13;2.92;;;;;;;;;;5066009;28;20216;-70
2022/06/03 02:03:10;;;;;;;2.92;2.83;;;;;;;;;;5064423;28;20197;-70
2022/06/03 02:05:55;;;;;;;3.20;2.85;;;;;;;;;;5066028;28;20228;-70
2022/06/03 02:08:46;;;;;;;2.92;2.72;;;;;;;;;;5065784;28;20197;-70
2022/06/03 02:11:26;;;;;;;2.83;2.70;;;;;;;;;;5066246;28;20407;-70
2022/06/03 02:14:11;;;;;;;3.20;3.00;;;;;;;;;;5065998;28;20207;-70
2022/06/03 02:16:55;;;;;;;2.78;2.67;;;;;;;;;;5065693;28;20212;-70
2022/06/03 02:19:32;;;;;;;3.28;3.15;;;;;;;;;;5065878;28;20217;-70
2022/06/03 02:22:21;;;;;;;3.47;2.92;;;;;;;;;;5065932;28;20235;-70
2022/06/03 02:25:06;;;;;;;3.10;2.90;;;;;;;;;;5065723;28;20259;-70
2022/06/03 02:27:46;;;;;;;5.10;3.13;;;;;;;;;;5065620;28;20212;-70
2022/06/03 02:30:25;;;;;;;2.88;2.78;;;;;;;;;;5065534;28;20193;-70
2022/06/03 02:33:01;;;;;;;3.13;2.90;;;;;;;;;;5065603;28;20387;-70
2022/06/03 02:35:33;;;;;;;3.72;3.30;;;;;;;;;;5065404;28;20205;-70
2022/06/03 02:38:07;;;;;;;3.47;3.28;;;;;;;;;;5065424;28;20197;-70
2022/06/03 02:40:40;;;;;;;3.47;3.25;;;;;;;;;;5065374;28;20229;-70
2022/06/03 02:43:20;;;;;;;4.35;3.33;;;;;;;;;;5065274;28;20197;-70
2022/06/03 02:46:06;;;;;;;3.97;3.08;;;;;;;;;;5065323;28;20204;-70
2022/06/03 02:48:56;;;;;;;3.47;3.22;;;;;;;;;;5065384;28;20201;-70
2022/06/03 02:51:40;;;;;;;3.28;2.92;;;;;;;;;;5054767;28;20197;-70
2022/06/03 02:54:33;;;;;;;5.10;2.92;;;;;;;;;;5065166;28;20197;-70
2022/06/03 02:57:10;;;;;;;3.40;3.20;;;;;;;;;;5065068;28;20234;-70
2022/06/03 02:59:47;;;;;;;3.35;3.05;;;;;;;;;;5065286;28;20231;-70
2022/06/03 03:02:26;;;;;;;3.42;3.22;;;;;;;;;;5065103;28;20197;-70
2022/06/03 03:05:11;;;;;;;3.35;3.15;;;;;;;;;;5064767;28;20262;-70
2022/06/03 03:07:44;;;;;;;4.70;3.38;;;;;;;;;;5064792;28;20250;-70
2022/06/03 03:10:21;;;;;;;3.35;3.08;;;;;;;;;;5064888;28;20193;-70
2022/06/03 03:12:58;;;;;;;3.40;3.17;;;;;;;;;;5064889;28;20457;-70
2022/06/03 03:15:36;;;;;;;5.15;3.70;;;;;;;;;;5064853;28;20208;-70
2022/06/03 03:18:19;;;;;;;3.30;3.00;;;;;;;;;;5064658;28;20497;-70
2022/06/03 03:21:07;;;;;;;3.55;3.25;;;;;;;;;;5064539;28;20270;-70
2022/06/03 03:23:57;;;;;;;3.42;3.22;;;;;;;;;;5064291;28;20212;-70
2022/06/03 03:26:27;;;;;;;4.28;3.88;;;;;;;;;;5064362;28;20204;-70
2022/06/03 03:29:17;;;;;;;3.40;3.10;;;;;;;;;;5064536;28;20243;-70
2022/06/03 03:31:47;;;;;;;3.75;3.20;;;;;;;;;;5064423;28;20205;-70
2022/06/03 03:34:19;;;;;;;3.47;3.28;;;;;;;;;;5064835;28;20550;-70
2022/06/03 03:36:53;;;;;;;3.90;3.53;;;;;;;;;;5064363;28;20197;-70
2022/06/03 03:39:46;;;;;;;5.65;4.88;;;;;;;;;;5064033;28;20221;-70
2022/06/03 03:42:25;;;;;;;6.80;6.10;;;;;;;;;;5064032;28;20204;-70
2022/06/03 03:45:09;;;;;;;6.13;5.53;;;;;;;;;;5064023;28;20234;-70
2022/06/03 03:47:53;;;;;;;5.80;5.20;;;;;;;;;;5063540;28;20243;-70
2022/06/03 03:50:33;;;;;;;5.70;5.20;;;;;;;;;;5064084;28;20215;-70
2022/06/03 03:53:08;;;;;;;5.95;4.78;;;;;;;;;;5063890;28;20231;-70
2022/06/03 03:55:48;;;;;;;5.20;4.47;;;;;;;;;;5064196;28;20231;-70
2022/06/03 03:58:24;;;;;;;5.10;4.28;;;;;;;;;;5063790;28;20204;-70
2022/06/03 04:01:09;;;;;;;4.60;4.25;;;;;;;;;;5063616;28;20213;-70
2022/06/03 04:03:50;;;;;;;5.47;4.40;;;;;;;;;;5063706;28;20208;-70
2022/06/03 04:06:29;;;;;;;4.40;3.50;;;;;;;;;;5063577;28;20629;-70
2022/06/03 04:09:06;;;;;;;4.35;4.00;;;;;;;;;;5062369;28;20204;-70
2022/06/03 04:11:45;;;;;;;3.80;3.53;;;;;;;;;;5063344;28;20196;-70
2022/06/03 04:14:30;;;;;;;3.80;3.53;;;;;;;;;;5063568;28;20197;-70
2022/06/03 04:17:11;;;;;;;4.07;3.88;;;;;;;;;;5063293;28;20204;-69
2022/06/03 04:19:53;;;;;;;4.38;4.07;;;;;;;;;;5063279;28;20262;-69
2022/06/03 04:22:31;;;;;;;4.43;4.00;;;;;;;;;;5061533;28;20212;-69
2022/06/03 04:25:09;;;;;;;4.22;3.83;;;;;;;;;;5063430;28;20201;-69
2022/06/03 04:27:59;;;;;;;6.45;4.28;;;;;;;;;;5063147;28;20427;-69
2022/06/03 04:30:44;;;;;;;4.63;4.20;;;;;;;;;;5052574;28;20193;-69
2022/06/03 04:33:26;;;;;;;4.45;3.85;;;;;;;;;;5063115;28;20200;-69
2022/06/03 04:36:12;;;;;;;5.53;4.75;;;;;;;;;;5063034;28;20236;-69
2022/06/03 04:39:00;;;;;;;5.07;4.50;;;;;;;;;;5062909;28;20200;-69
2022/06/03 04:41:53;;;;;;;4.60;4.30;;;;;;;;;;5062909;28;20217;-69
2022/06/03 04:44:41;;;;;;;4.47;4.18;;;;;;;;;;5062923;28;20254;-69
2022/06/03 04:47:26;;;;;;;5.18;4.28;;;;;;;;;;5062776;28;20518;-69
2022/06/03 04:50:22;;;;;;;4.55;4.15;;;;;;;;;;5062898;28;20200;-69
2022/06/03 04:53:05;;;;;;;6.35;5.75;;;;;;;;;;5062834;28;20196;-69
2022/06/03 04:55:49;;;;;;;8.35;5.68;;;;;;;;;;5062749;28;20223;-69
2022/06/03 04:58:34;;;;;;;7.38;5.22;;;;;;;;;;5062723;28;20398;-69
2022/06/03 05:01:19;;;;;;;5.97;5.38;;;;;;;;;;5062663;28;20226;-69
2022/06/03 05:04:05;;;;;;;7.50;5.20;;;;;;;;;;5062570;28;20201;-69
2022/06/03 05:06:48;;;;;;;8.98;5.75;;;;;;;;;;5062392;28;20224;-69
2022/06/03 05:09:44;;;;;;;6.32;5.32;;;;;;;;;;5062508;28;20209;-69
2022/06/03 05:12:29;;;;;;;7.40;5.43;;;;;;;;;;5062694;28;20212;-69
2022/06/03 05:15:08;;;;;;;5.13;4.72;;;;;;;;;;5062608;28;20519;-69
2022/06/03 05:17:51;;;;;;;5.25;4.60;;;;;;;;;;5062303;28;20242;-69
2022/06/03 05:20:25;;;;;;;5.70;4.88;;;;;;;;;;5062251;28;20386;-69
2022/06/03 05:23:08;;;;;;;4.82;4.47;;;;;;;;;;5061749;28;20235;-69
2022/06/03 05:25:44;;;;;;;5.50;5.00;;;;;;;;;;5062256;28;20219;-69
2022/06/03 05:28:23;;;;;;;5.93;5.43;;;;;;;;;;5061710;28;20534;-69
2022/06/03 05:31:00;;;;;;;5.35;5.05;;;;;;;;;;5062183;28;20197;-69
2022/06/03 05:33:44;;;;;;;6.05;5.57;;;;;;;;;;5062830;28;20201;-69
2022/06/03 05:36:29;;;;;;;7.03;5.43;;;;;;;;;;5061925;28;20196;-69
2022/06/03 05:39:13;;;;;;;8.57;5.90;;;;;;;;;;5062013;28;20203;-69
2022/06/03 05:44:46;;;;;;;8.02;5.57;;;;;;;;;;5056829;28;20251;-69
2022/06/03 05:47:16;;;;;;;6.88;6.20;;;;;;;;;;5046411;28;20209;-69
2022/06/03 05:49:48;;;;;;;7.20;6.00;;;;;;;;;;5059119;28;20247;-69
2022/06/03 05:52:26;;;;;;;5.80;5.40;;;;;;;;;;5058351;28;20259;-69
2022/06/03 05:55:00;;;;;;;6.05;5.38;;;;;;;;;;5057769;28;20552;-68
2022/06/03 05:57:33;;;;;;;5.18;4.75;;;;;;;;;;5047046;28;20378;-68
2022/06/03 06:00:09;;;;;;;5.75;5.35;;;;;;;;;;5046063;28;20572;-68
2022/06/03 06:02:39;;;;;;;5.32;4.82;;;;;;;;;;5058431;28;20209;-69
2022/06/03 06:05:11;;;;;;;6.38;5.18;;;;;;;;;;5058388;28;20251;-68
2022/06/03 06:07:40;;;;;;;8.70;5.57;;;;;;;;;;5058391;28;20259;-68
2022/06/03 06:10:11;;;;;;;6.50;4.93;;;;;;;;;;5056643;28;20205;-68
2022/06/03 06:12:45;;;;;;;6.40;5.90;;;;;;;;;;5058620;28;20232;-68
2022/06/03 06:15:24;;;;;;;10.07;6.15;;;;;;;;;;5058483;28;20205;-69
2022/06/03 06:17:55;;;;;;;11.68;5.70;;;;;;;;;;5058177;28;20655;-68
2022/06/03 06:20:29;;;;;;;6.57;5.32;;;;;;;;;;5051337;28;20405;-68
2022/06/03 06:23:00;;;;;;;6.07;5.57;;;;;;;;;;5058307;28;20488;-69
2022/06/03 06:25:32;;;;;;;7.53;5.60;;;;;;;;;;5050954;28;20239;-68
2022/06/03 06:28:01;;;;;;;5.05;4.72;;;;;;;;;;5057840;28;20213;-68
2022/06/03 06:30:46;;;;;;;5.60;5.10;;;;;;;;;;5047528;28;20205;-68
2022/06/03 06:33:24;;;;;;;6.40;5.65;;;;;;;;;;5039828;28;20228;-68
2022/06/03 06:36:01;;;;;;;6.65;5.32;;;;;;;;;;5043905;28;20197;-68
2022/06/03 06:38:31;;;;;;;5.90;5.20;;;;;;;;;;5062252;28;20234;-69
2022/06/03 06:41:02;;;;;;;5.55;5.05;;;;;;;;;;5061388;28;20446;-68
2022/06/03 06:43:38;;;;;;;6.60;5.03;;;;;;;;;;5061701;28;20212;-68
2022/06/03 06:46:09;;;;;;;5.80;5.20;;;;;;;;;;5061990;28;20228;-68
2022/06/03 06:48:40;;;;;;;5.78;5.32;;;;;;;;;;5061772;28;20243;-68
2022/06/03 06:51:12;;;;;;;5.75;5.05;;;;;;;;;;5061744;28;20276;-68
2022/06/03 06:53:41;;;;;;;7.72;5.60;;;;;;;;;;5061891;28;20531;-68
2022/06/03 06:56:12;;;;;;;8.95;5.50;;;;;;;;;;5061468;28;20209;-68
2022/06/03 06:58:45;;;;;;;8.57;5.20;;;;;;;;;;5043053;28;20209;-68
2022/06/03 07:01:13;;;;;;;6.22;5.38;;;;;;;;;;5041161;28;20401;-68
2022/06/03 07:03:45;;;;;;;5.45;5.03;;;;;;;;;;5041513;28;20521;-68
2022/06/03 07:06:14;;;;;;;8.25;4.38;;;;;;;;;;5041254;28;20225;-68
2022/06/03 07:08:43;;;;;;;7.30;5.15;;;;;;;;;;5041767;28;20259;-68
2022/06/03 07:11:13;;;;;;;7.78;4.88;;;;;;;;;;5041751;28;20206;-69
2022/06/03 07:13:43;;;;;;;8.50;4.50;;;;;;;;;;5041630;28;20509;-68
2022/06/03 07:16:10;;;;;;;6.63;4.13;;;;;;;;;;5041400;28;20300;-69
2022/06/03 07:21:33;;;;;;;5.25;4.82;;;;;;;;;;5061512;28;20236;-67
2022/06/03 07:24:04;;;;;;;9.50;5.15;;;;;;;;;;5041645;28;20213;-67
2022/06/03 07:26:34;;;;;;;6.40;4.68;;;;;;;;;;5041461;28;20266;-67
2022/06/03 07:29:05;;;;;;;5.53;4.10;;;;;;;;;;5042440;28;20252;-67
2022/06/03 07:31:35;;;;;;;6.18;4.43;;;;;;;;;;5058771;28;20209;-60
2022/06/03 07:34:03;;;;;;;4.85;4.55;;;;;;;;;;5042568;28;20488;-59
2022/06/03 07:36:36;;;;;;;4.70;4.28;;;;;;;;;;5045855;28;20213;-60
2022/06/03 07:39:11;;;;;;;10.15;4.93;;;;;;;;;;5058574;28;20413;-60
2022/06/03 07:41:40;;;;;;;4.03;3.72;;;;;;;;;;5059104;28;20239;-61
2022/06/03 07:44:13;;;;;;;4.32;4.13;;;;;;;;;;5045279;28;20221;-61
2022/06/03 07:46:42;;;;;;;4.60;4.20;;;;;;;;;;5038461;28;20217;-61
2022/06/03 07:49:08;;;;;;;6.90;3.80;;;;;;;;;;5038452;28;20226;-61
2022/06/03 07:51:38;;;;;;;5.55;3.80;;;;;;;;;;5038206;28;20210;-61
2022/06/03 07:54:05;;;;;;;6.95;4.15;;;;;;;;;;5037808;28;20236;-61
2022/06/03 07:56:32;;;;;;;4.00;3.67;;;;;;;;;;5038158;28;20517;-61
2022/06/03 07:59:00;;;;;;;6.05;4.00;;;;;;;;;;5038218;28;20256;-59
2022/06/03 08:01:28;;;;;;;7.40;5.50;;;;;;;;;;5045058;28;20283;-60
2022/06/03 08:03:55;;;;;;;5.35;4.00;;;;;;;;;;5054098;28;20275;-60
2022/06/03 08:06:26;;;;;;;7.30;4.13;;;;;;;;;;5037239;28;20209;-59
2022/06/03 08:11:41;;;;;;;4.07;3.80;;;;;;;;;;5037032;28;20555;-59
2022/06/03 08:14:08;;;;;;;5.15;3.55;;;;;;;;;;5036738;28;20214;-60
2022/06/03 08:16:36;;;;;;;5.78;5.38;;;;;;;;;;5037120;28;20544;-60
2022/06/03 08:19:06;;;;;;;6.82;4.03;;;;;;;;;;5037613;28;20213;-61
2022/06/03 08:21:35;;;;;;;3.78;3.47;;;;;;;;;;5037245;28;20229;-60
2022/06/03 08:24:02;;;;;;;7.43;6.03;;;;;;;;;;5037790;28;20210;-58
2022/06/03 08:26:29;;;;;;;3.80;3.50;;;;;;;;;;5036953;28;20248;-60
2022/06/03 08:29:01;;;;;;;5.07;3.72;;;;;;;;;;5037686;28;20252;-60
2022/06/03 08:31:27;;;;;;;5.78;3.17;;;;;;;;;;5037289;28;20461;-60
2022/06/03 08:33:55;;;;;;;3.60;3.30;;;;;;;;;;5037270;28;20210;-61
2022/06/03 08:36:23;;;;;;;3.50;3.20;;;;;;;;;;5047437;28;20624;-61
2022/06/03 08:38:53;;;;;;;4.30;3.90;;;;;;;;;;5057601;28;20223;-60
2022/06/03 08:41:37;;;;;;;4.88;4.40;;;;;;;;;;5057119;28;20439;-60
2022/06/03 08:44:15;;;;;;;3.25;2.88;;;;;;;;;;5049959;28;20404;-60
2022/06/03 08:46:46;;;;;;;4.90;3.53;;;;;;;;;;5047080;28;20528;-61
2022/06/03 08:49:18;;;;;;;3.75;3.45;;;;;;;;;;5037458;28;20213;-59
2022/06/03 08:51:46;;;;;;;3.38;3.10;;;;;;;;;;5037268;28;20247;-60
2022/06/03 08:54:18;;;;;;;3.10;2.80;;;;;;;;;;5037459;28;20217;-59
2022/06/03 08:56:46;;;;;;;3.17;2.97;;;;;;;;;;5036481;28;20213;-60
2022/06/03 08:59:15;;;;;;;3.33;2.97;;;;;;;;;;5037057;28;20213;-61
2022/06/03 09:01:45;;;;;;;4.63;4.10;;;;;;;;;;5037070;28;20230;-60
2022/06/03 09:04:17;;;;;;;2.90;2.70;;;;;;;;;;5037072;28;20336;-60
2022/06/03 09:06:47;;;;;;;3.75;2.70;;;;;;;;;;5036391;28;20225;-59
2022/06/03 09:09:18;;;;;;;4.93;2.85;;;;;;;;;;5036718;28;20210;-60
2022/06/03 09:11:47;;;;;;;6.25;4.78;;;;;;;;;;5036373;28;20446;-60
2022/06/03 09:14:18;;;;;;;3.60;3.40;;;;;;;;;;5036743;28;20514;-60
2022/06/03 09:16:46;;;;;;;3.20;3.10;;;;;;;;;;5036733;28;20215;-61
2022/06/03 09:19:17;;;;;;;5.20;3.40;;;;;;;;;;5036272;28;20217;-60
2022/06/03 09:21:44;;;;;;;4.88;3.00;;;;;;;;;;5036637;28;20229;-60
2022/06/03 09:24:14;;;;;;;3.30;3.00;;;;;;;;;;5036693;28;20408;-61
2022/06/03 09:26:42;;;;;;;3.20;3.00;;;;;;;;;;5036595;28;20212;-61
2022/06/03 09:29:11;;;;;;;2.92;2.67;;;;;;;;;;5036425;28;20239;-61
2022/06/03 09:31:39;;;;;;;2.85;2.60;;;;;;;;;;5036543;28;20209;-60
2022/06/03 09:34:06;;;;;;;3.38;2.38;;;;;;;;;;5036957;28;20240;-61
2022/06/03 09:36:34;;;;;;;4.68;3.15;;;;;;;;;;5051587;28;20208;-60
2022/06/03 09:39:03;;;;;;;2.47;2.35;;;;;;;;;;5055942;28;20389;-60
2022/06/03 09:41:32;;;;;;;2.65;2.50;;;;;;;;;;5055981;28;20223;-60
2022/06/03 09:44:02;;;;;;;3.78;2.97;;;;;;;;;;5056254;28;20208;-60
2022/06/03 09:46:29;;;;;;;3.60;2.78;;;;;;;;;;5056166;28;20520;-59
2022/06/03 09:48:56;;;;;;;4.45;2.03;;;;;;;;;;5055682;28;20236;-59
2022/06/03 09:51:55;;;;;;;2.70;2.53;;;;;;;;;;5056103;28;20481;-59
2022/06/03 09:54:13;;;;;;;2.78;2.58;;;;;;;;;;5056235;28;20239;-59
2022/06/03 09:56:40;;;;;;;5.05;2.50;;;;;;;;;;5056120;28;20209;-60
2022/06/03 09:59:06;;;;;;;3.90;3.05;;;;;;;;;;5055934;28;20215;-63
2022/06/03 10:01:33;;;;;;;2.25;2.15;;;;;;;;;;5055849;28;20290;-60
2022/06/03 10:04:01;;;;;;;5.03;4.55;;;;;;;;;;5056485;28;20286;-59
2022/06/03 10:06:50;;;;;;;2.60;2.45;;;;;;;;;;5056270;28;20282;-60
2022/06/03 10:15:37;;;;;;;2.40;2.13;;;;;;;;;;5059943;28;20203;-60
2022/06/03 10:17:34;;;;;;;2.80;2.70;;;;;;;;;;5059704;28;20472;-61
2022/06/03 10:20:00;;;;;;;3.10;2.22;;;;;;;;;;5058987;28;20250;-61
2022/06/03 10:22:27;;;;;;;2.20;1.92;;;;;;;;;;5039462;28;20225;-63
2022/06/03 10:24:55;;;;;;;6.72;4.00;;;;;;;;;;5043373;28;20211;-61
2022/06/03 10:27:22;;;;;;;2.03;1.92;;;;;;;;;;5059229;28;20201;-62
2022/06/03 10:29:49;;;;;;;5.00;4.60;;;;;;;;;;5059738;28;20212;-60
2022/06/03 10:32:17;;;;;;;3.60;3.10;;;;;;;;;;5043933;28;20209;-63
2022/06/03 10:34:44;;;;;;;2.83;2.47;;;;;;;;;;5039486;28;20231;-60
2022/06/03 10:37:11;;;;;;;5.88;2.20;;;;;;;;;;5049813;28;20209;-61
2022/06/03 10:39:40;;;;;;;2.30;2.20;;;;;;;;;;5039121;28;20220;-60
2022/06/03 10:42:12;;;;;;;6.07;2.17;;;;;;;;;;5038759;28;20237;-62
2022/06/03 10:44:43;;;;;;;5.68;3.78;;;;;;;;;;5039614;28;20402;-60
2022/06/03 10:47:13;;;;;;;4.20;3.90;;;;;;;;;;5039396;28;20208;-60
2022/06/03 10:49:51;;;;;;;4.70;2.35;;;;;;;;;;5039603;28;20474;-60
2022/06/03 11:03:29;;;;;;;2.00;1.90;;;;;;;;;;5038336;28;20256;-60
2022/06/03 11:05:56;;;;;;;2.85;2.58;;;;;;;;;;5038942;28;20549;-60
2022/06/03 11:08:22;;;;;;;2.33;2.13;;;;;;;;;;5038009;28;20214;-60
2022/06/03 11:10:50;;;;;;;3.13;2.90;;;;;;;;;;5038770;28;20209;-58
2022/06/03 11:13:27;;;;;;;4.30;3.25;;;;;;;;;;5038179;28;20216;-61
2022/06/03 11:15:54;;;;;;;2.05;1.90;;;;;;;;;;5038861;28;20208;-61
2022/06/03 11:18:22;;;;;;;1.80;1.77;;;;;;;;;;5038530;28;20209;-60
2022/06/03 11:20:50;;;;;;;2.40;2.20;;;;;;;;;;5037723;28;20532;-62
2022/06/03 11:23:17;;;;;;;2.22;2.13;;;;;;;;;;5038397;28;20229;-64
2022/06/03 11:25:46;;;;;;;4.38;4.00;;;;;;;;;;5039484;28;20210;-63
2022/06/03 11:28:14;;;;;;;3.70;3.20;;;;;;;;;;5039115;28;20261;-64
2022/06/03 11:30:46;;;;;;;4.50;4.20;;;;;;;;;;5039158;28;20209;-64
2022/06/03 11:33:15;;;;;;;2.03;2.03;;;;;;;;;;5038641;28;20233;-62
2022/06/03 11:35:43;;;;;;;3.60;2.20;;;;;;;;;;5039023;28;20217;-61
2022/06/03 11:38:11;;;;;;;2.33;2.22;;;;;;;;;;5059028;28;20220;-61
2022/06/03 11:40:39;;;;;;;3.22;1.83;;;;;;;;;;5058501;28;20216;-60
2022/06/03 11:43:08;;;;;;;2.60;2.00;;;;;;;;;;5058262;28;20471;-62
2022/06/03 11:45:38;;;;;;;2.38;2.10;;;;;;;;;;5057816;28;20467;-62
2022/06/03 11:48:08;;;;;;;2.13;2.03;;;;;;;;;;5058301;28;20213;-61
2022/06/03 11:50:35;;;;;;;4.20;2.70;;;;;;;;;;5058456;28;20208;-61
2022/06/03 11:53:02;;;;;;;2.40;2.17;;;;;;;;;;5058095;28;20404;-61
2022/06/03 11:55:29;;;;;;;3.63;1.95;;;;;;;;;;5057859;28;20258;-61
2022/06/03 11:57:57;;;;;;;3.03;1.80;;;;;;;;;;5057729;28;20721;-61
2022/06/03 12:00:25;;;;;;;3.50;2.20;;;;;;;;;;5057988;28;20270;-61
2022/06/03 12:02:59;;;;;;;3.17;2.70;;;;;;;;;;5057537;28;20225;-62
2022/06/03 12:05:30;;;;;;;3.47;2.00;;;;;;;;;;5057406;28;20462;-61
2022/06/03 12:08:00;;;;;;;3.00;2.58;;;;;;;;;;5057189;28;20497;-62
2022/06/03 12:10:29;;;;;;;4.13;1.90;;;;;;;;;;5057157;28;20478;-62
2022/06/03 12:13:15;;;;;;;2.65;2.13;;;;;;;;;;5056628;28;20208;-62
2022/06/03 12:15:43;;;;;;;2.75;2.55;;;;;;;;;;5056928;28;20208;-63
2022/06/03 12:18:17;;;;;;;2.97;2.55;;;;;;;;;;5056963;28;20223;-62
2022/06/03 12:20:55;;;;;;;4.72;2.30;;;;;;;;;;5057278;28;20216;-62
2022/06/03 12:23:49;;;;;;;4.82;4.53;;;;;;;;;;5057637;28;20228;-62
2022/06/03 12:26:20;;;;;;;3.17;2.22;;;;;;;;;;5057098;28;20215;-61
2022/06/03 12:28:48;;;;;;;2.45;2.30;;;;;;;;;;5057131;28;20527;-61
2022/06/03 12:31:15;;;;;;;4.32;2.75;;;;;;;;;;5057114;28;20439;-61
2022/06/03 12:33:46;;;;;;;6.75;2.50;;;;;;;;;;5056985;28;20213;-60
2022/06/03 12:36:27;;;;;;;9.65;8.70;;;;;;;;;;5057098;28;20205;-59
2022/06/03 12:38:56;;;;;;;2.60;2.30;;;;;;;;;;5057052;28;20227;-59
2022/06/03 12:41:41;;;;;;;7.97;3.17;;;;;;;;;;5043311;28;20560;-61
2022/06/03 12:44:08;;;;;;;2.58;1.98;;;;;;;;;;5036847;28;20216;-59
2022/06/03 12:46:35;;;;;;;2.72;2.63;;;;;;;;;;5036998;28;20209;-60
2022/06/03 12:49:01;;;;;;;2.33;2.22;;;;;;;;;;5036830;28;20217;-61
2022/06/03 12:51:28;;;;;;;2.80;2.25;;;;;;;;;;5037378;28;20213;-60
2022/06/03 12:53:57;;;;;;;2.55;2.30;;;;;;;;;;5037322;28;20233;-61
2022/06/03 12:56:41;;;;;;;2.45;2.35;;;;;;;;;;5037368;28;20209;-61
2022/06/03 12:59:22;;;;;;;6.35;2.15;;;;;;;;;;5036776;28;20220;-60
2022/06/03 13:01:50;;;;;;;2.22;2.03;;;;;;;;;;5036755;28;20209;-60
2022/06/03 13:04:46;;;;;;;7.93;2.17;;;;;;;;;;5036862;28;20220;-62
2022/06/03 13:07:31;;;;;;;5.80;2.55;;;;;;;;;;4994962;28;20459;-62
2022/06/03 13:10:13;;;;;;;6.65;2.00;;;;;;;;;;5031854;28;20213;-61
2022/06/03 13:12:48;;;;;;;3.00;2.20;;;;;;;;;;5036464;28;20319;-61
2022/06/03 13:15:33;;;;;;;3.05;2.25;;;;;;;;;;5036741;28;20204;-61
2022/06/03 13:18:10;;;;;;;4.38;2.08;;;;;;;;;;5036724;28;20209;-61
2022/06/03 13:20:38;;;;;;;2.42;2.22;;;;;;;;;;5036233;28;20219;-61
2022/06/03 13:23:24;;;;;;;2.63;2.35;;;;;;;;;;5036360;28;20256;-62
2022/06/03 13:25:51;;;;;;;6.05;2.40;;;;;;;;;;5036658;28;20209;-62
2022/06/03 13:28:27;;;;;;;2.70;2.25;;;;;;;;;;5036654;28;20280;-62
2022/06/03 13:31:23;;;;;;;3.70;2.00;;;;;;;;;;5035984;28;20216;-63
2022/06/03 13:34:17;;;;;;;2.38;2.10;;;;;;;;;;5036493;28;20567;-60
2022/06/03 13:36:54;;;;;;;2.97;2.45;;;;;;;;;;5045388;28;20208;-63
2022/06/03 13:39:35;;;;;;;3.45;2.40;;;;;;;;;;5054975;28;20275;-60
2022/06/03 13:45:10;;;;;;;5.30;2.65;;;;;;;;;;5036512;28;20232;-61
2022/06/03 13:47:47;;;;;;;4.90;2.60;;;;;;;;;;5036475;28;20659;-61
2022/06/03 13:50:20;;;;;;;8.35;2.70;;;;;;;;;;5036314;28;20212;-61
2022/06/03 13:52:52;;;;;;;2.40;2.30;;;;;;;;;;5036021;28;20205;-61
2022/06/03 13:55:24;;;;;;;2.70;2.50;;;;;;;;;;5036303;28;20228;-59
2022/06/03 13:57:52;;;;;;;5.72;2.65;;;;;;;;;;5035354;28;20241;-61
2022/06/03 14:00:21;;;;;;;2.70;2.50;;;;;;;;;;5035769;28;20253;-61
2022/06/03 14:02:49;;;;;;;3.10;2.78;;;;;;;;;;5035630;28;20221;-60
2022/06/03 14:05:28;;;;;;;5.55;2.53;;;;;;;;;;5036297;28;20237;-61
2022/06/03 14:08:01;;;;;;;5.65;2.95;;;;;;;;;;5035515;28;20209;-61
2022/06/03 14:10:34;;;;;;;3.13;2.70;;;;;;;;;;5035950;28;20209;-61
2022/06/03 14:13:02;;;;;;;4.32;2.88;;;;;;;;;;5035343;28;20244;-61
2022/06/03 14:15:32;;;;;;;5.65;3.15;;;;;;;;;;5035937;28;20209;-61
2022/06/03 14:17:59;;;;;;;3.58;2.70;;;;;;;;;;5035793;28;20285;-61
2022/06/03 14:20:31;;;;;;;5.03;3.22;;;;;;;;;;5035939;28;20236;-61
2022/06/03 14:23:04;;;;;;;3.15;2.95;;;;;;;;;;5035090;28;20275;-61
2022/06/03 14:25:34;;;;;;;5.97;3.05;;;;;;;;;;5035934;28;20213;-60
2022/06/03 14:28:08;;;;;;;6.50;2.90;;;;;;;;;;5036004;28;20225;-60
2022/06/03 14:30:38;;;;;;;5.22;2.70;;;;;;;;;;5036517;28;20271;-61
2022/06/03 14:33:05;;;;;;;3.50;2.75;;;;;;;;;;5047015;28;20209;-59
2022/06/03 14:35:33;;;;;;;5.40;2.95;;;;;;;;;;5056192;28;20254;-61
2022/06/03 14:38:05;;;;;;;3.08;2.63;;;;;;;;;;5055746;28;20205;-61
2022/06/03 14:40:32;;;;;;;4.60;2.70;;;;;;;;;;5056002;28;20209;-61
2022/06/03 14:43:00;;;;;;;3.15;2.90;;;;;;;;;;5054893;28;20235;-60
2022/06/03 14:45:28;;;;;;;3.58;3.15;;;;;;;;;;5055366;28;20213;-61
2022/06/03 14:47:57;;;;;;;3.20;2.92;;;;;;;;;;5055375;28;20212;-61
2022/06/03 14:50:24;;;;;;;3.30;3.08;;;;;;;;;;5055620;28;20209;-61
2022/06/03 14:52:55;;;;;;;3.40;3.17;;;;;;;;;;5054944;28;20209;-62
2022/06/03 14:55:25;;;;;;;4.47;2.92;;;;;;;;;;5058450;28;20274;-60
2022/06/03 14:57:54;;;;;;;5.03;2.83;;;;;;;;;;5058900;28;20450;-61
2022/06/03 15:00:32;;;;;;;3.55;3.05;;;;;;;;;;5059243;28;20582;-61
2022/06/03 15:03:03;;;;;;;3.03;2.83;;;;;;;;;;5058864;28;20228;-61
2022/06/03 15:05:32;;;;;;;3.03;2.85;;;;;;;;;;5058968;28;20244;-62
2022/06/03 15:08:01;;;;;;;4.97;2.90;;;;;;;;;;5058735;28;20217;-62
2022/06/03 15:10:29;;;;;;;4.20;3.05;;;;;;;;;;5059063;28;20278;-62
2022/06/03 15:12:57;;;;;;;3.35;2.85;;;;;;;;;;5058983;28;20512;-62
2022/06/03 15:15:26;;;;;;;5.07;3.00;;;;;;;;;;5059301;28;20209;-62
2022/06/03 15:17:52;;;;;;;5.68;3.00;;;;;;;;;;5058835;28;20209;-61
2022/06/03 15:20:20;;;;;;;3.33;3.10;;;;;;;;;;5058761;28;20405;-62
2022/06/03 15:22:48;;;;;;;3.90;3.05;;;;;;;;;;5058447;28;20635;-62
2022/06/03 15:25:17;;;;;;;7.50;3.47;;;;;;;;;;5058957;28;20213;-61
2022/06/03 15:27:47;;;;;;;7.63;2.75;;;;;;;;;;5058720;28;20322;-61
2022/06/03 15:30:18;;;;;;;3.67;2.88;;;;;;;;;;5059796;28;20407;-61
2022/06/03 15:32:44;;;;;;;3.65;3.25;;;;;;;;;;5058291;28;20201;-61
2022/06/03 15:35:12;;;;;;;3.80;2.92;;;;;;;;;;5044523;28;20201;-61
2022/06/03 15:37:38;;;;;;;3.33;2.95;;;;;;;;;;5044151;28;20197;-61
2022/06/03 15:40:06;;;;;;;3.08;2.88;;;;;;;;;;5044156;28;20243;-61
2022/06/03 15:42:32;;;;;;;6.50;3.10;;;;;;;;;;5044228;28;20216;-61
2022/06/03 15:45:03;;;;;;;7.03;3.08;;;;;;;;;;5044190;28;20198;-61
2022/06/03 15:47:32;;;;;;;5.07;3.05;;;;;;;;;;5042874;28;20251;-61
2022/06/03 15:50:05;;;;;;;3.10;2.83;;;;;;;;;;5043268;28;20251;-61
2022/06/03 15:52:39;;;;;;;3.88;3.47;;;;;;;;;;5043674;28;20197;-61
2022/06/03 15:55:06;;;;;;;3.85;2.78;;;;;;;;;;5043905;28;20203;-61